Boyd, Texas
Current Conditions -  °F | °C
As of 8:35 PM on Friday 21 Nov 2014 (Local Time) from KLUD Reporting Station
Overcast Overcast  
Wind Chill: 64°   Ceiling: 600
Heat Index: 64°   Visibility: 7mi
Dew Point: 62°   Wind: 12mph
Humidity: 94%   Direction: 140°SE
Pressure: 30.06"   Gusts: NA
Location:  33.08°N, 97.57°W
Report Text: KLUD 220235Z AUTO 14010KT 7SM OVC006 18/17 A3006 RMK AO2 T01760167
Loading
Personal Weather Stations






























Interactive Weather Map New forecast layout! Learn more

10-Day Weather Forecast

Advertisements
Track Severe Weather on mobile